Home > Products > Valid Products > TAF

000
FTUS46 KHNX 031425 CCA
TAFMCE
TAF COR
KMCE 031425Z 0314/0412 VRB03KT 2SM BR SCT002
      TEMPO 0314/0316 3/4SM BR VV002
     FM031900 32010KT P6SM SKC
     FM040400 VRB03KT P6SM SKC=



000
FTUS46 KHNX 031424 AAA
TAFMCE
TAF AMD
KMCE 031424Z 0314/0412 VRB03KT 6SM BR SKC
      TEMPO 0314/0316 4SM BR
     FM031900 32010KT P6SM SKC
     FM040400 VRB03KT P6SM SKC=



000
FTUS46 KHNX 031122
TAFMCE
TAF
KMCE 031122Z 0312/0412 VRB03KT 3SM BR SKC
      TEMPO 0312/0316 1 1/2SM BR
     FM031900 32010KT P6SM SKC
     FM040400 VRB03KT P6SM SKC=



000
FTUS46 KHNX 031122
TAFFAT
TAF
KFAT 031122Z 0312/0412 VRB03KT P6SM SKC
      TEMPO 0313/0317 4SM BR
     FM032200 31009KT P6SM SKC
     FM040600 VRB03KT P6SM SKC=



000
FTUS46 KHNX 031122
TAFBFL
TAF
KBFL 031122Z 0312/0412 VRB03KT P6SM SCT060
     FM031900 30008KT P6SM FEW060
     FM040300 VRB03KT P6SM SKC=



000
FTUS46 KHNX 030520
TAFFAT
TAF
KFAT 030520Z 0306/0406 02006KT P6SM FEW250
     FM031900 32009KT P6SM FEW050=



000
FTUS46 KHNX 030520
TAFMCE
TAF
KMCE 030520Z 0306/0406 10003KT P6SM BKN100
     FM031000 VRB03KT 4SM BR SCT040
     FM031900 32010KT P6SM FEW050=



000
FTUS46 KHNX 030520
TAFBFL
TAF
KBFL 030520Z 0306/0406 00000KT P6SM SKC
     FM031900 32010KT P6SM SCT050=



000
FTUS46 KHNX 022321
TAFMCE
TAF
KMCE 022321Z 0300/0324 17008KT P6SM -RA VCTS SCT045CB BKN060
     FM030400 VRB03KT P6SM SCT040
     FM031000 VRB03KT 4SM BR SCT040
     FM031900 32010KT P6SM FEW050=



000
FTUS46 KHNX 022321
TAFFAT
TAF
KFAT 022321Z 0300/0324 14008KT P6SM -RA VCTS SCT045CB BKN060
     FM030400 VRB03KT P6SM SCT050 BKN100
     FM031900 32009KT P6SM FEW050=



000
FTUS46 KHNX 022321
TAFBFL
TAF
KBFL 022321Z 0300/0324 VRB04KT P6SM -RA VCTS SCT045CB BKN060
     FM030400 VRB03KT P6SM SCT050 BKN100
     FM031900 32010KT P6SM SCT050=



000
FTUS46 KHNX 021732
TAFFAT
TAF
KFAT 021732Z 0218/0318 10005KT P6SM -SHRA FEW020 BKN050 OVC100
      TEMPO 0222/0302 VRB15G25KT -TSRA BKN050CB
     FM030800 VRB03KT P6SM SCT050 BKN100=



000
FTUS46 KHNX 021732
TAFBFL
TAF
KBFL 021732Z 0218/0318 14007KT P6SM VCSH BKN050 OVC080
      TEMPO 0223/0303 VRB15G25KT -TSRA BKN050CB
     FM030800 VRB04KT P6SM FEW030 BKN050 OVC100=



000
FTUS46 KHNX 021732
TAFMCE
TAF
KMCE 021732Z 0218/0318 13005KT P6SM -SHRA BKN050 OVC080
      TEMPO 0222/0302 VRB15G25KT -TSRA BKN050CB
     FM030800 VRB03KT P6SM SCT050 BKN080=



000
FTUS46 KHNX 021732
TAFFAT
TAF
KFAT 021732Z 0218/0318 10005KT P6SM -SHRA FEW020 BKN050 OVC100
      TEMPO 0222/0302 VRB15G25KT -TSRA BKN050CB
     FM030800 VRB03KT P6SM SCT050 BKN100=



000
FTUS46 KHNX 021732
TAFBFL
TAF
KBFL 021732Z 0218/0318 14007KT P6SM VCSH BKN050 OVC080
      TEMPO 0223/0303 VRB15G25KT -TSRA BKN050CB
     FM030800 VRB04KT P6SM FEW030 BKN050 OVC100=



000
FTUS46 KHNX 021732
TAFMCE
TAF
KMCE 021732Z 0218/0318 13005KT P6SM -SHRA BKN050 OVC080
      TEMPO 0222/0302 VRB15G25KT -TSRA BKN050CB
     FM030800 VRB03KT P6SM SCT050 BKN080=



000
FTUS46 KHNX 021139
TAFFAT
TAF
KFAT 021139Z 0212/0312 10005KT P6SM VCSH OVC070
     FM022000 12008KT P6SM VCTS BKN050CB
     FM030400 VRB03KT P6SM SCT060=



000
FTUS46 KHNX 021139
TAFBFL
TAF
KBFL 021139Z 0212/0312 14007KT P6SM VCSH SCT005 BKN050 OVC080
     FM022000 VRB04KT P6SM VCTS BKN050CB
     FM030400 VRB04KT P6SM BKN050=



000
FTUS46 KHNX 021139
TAFMCE
TAF
KMCE 021139Z 0212/0312 13005KT P6SM VCSH OVC070
     FM022000 VRB05KT P6SM VCTS BKN050CB
     FM030400 VRB03KT P6SM SCT060=



000
FTUS46 KHNX 021139
TAFBFL
TAF
KBFL 021139Z 0212/0312 14007KT P6SM VCSH SCT005 BKN050 OVC080
     FM022000 VRB04KT P6SM VCTS BKN050CB
     FM030400 VRB04KT P6SM BKN050=



000
FTUS46 KHNX 021139
TAFFAT
TAF
KFAT 021139Z 0212/0312 10005KT P6SM VCSH OVC070
     FM022000 12008KT P6SM VCTS BKN050CB
     FM030400 VRB03KT P6SM SCT060=



000
FTUS46 KHNX 021139
TAFMCE
TAF
KMCE 021139Z 0212/0312 13005KT P6SM VCSH OVC070
     FM022000 VRB05KT P6SM VCTS BKN050CB
     FM030400 VRB03KT P6SM SCT060=



000
FTUS46 KHNX 020750 AAA
TAFBFL
TAF AMD
KBFL 020750Z 0208/0306 VRB04KT P6SM FEW007 BKN050 OVC100
      TEMPO 0208/0212 -SHRA BKN007
     FM021200 VRB03KT P6SM VCSH BKN050
     FM022000 VRB04KT P6SM VCTS BKN050CB
     FM030400 VRB04KT P6SM BKN050=



000
FTUS46 KHNX 020746 AAA
TAFMCE
TAF AMD
KMCE 020746Z 0208/0306 VRB03KT P6SM SCT060 BKN100
     FM021000 VRB03KT P6SM VCSH BKN060
     FM022000 VRB05KT P6SM VCTS BKN050CB
     FM030400 VRB03KT P6SM SCT060=



000
FTUS46 KHNX 020744 AAA
TAFFAT
TAF AMD
KFAT 020744Z 0208/0306 VRB05KT P6SM VCSH SCT060 BKN100
     FM022000 VRB05KT P6SM VCTS BKN050CB
     FM030400 VRB03KT P6SM SCT060=



000
FTUS46 KHNX 020539
TAFBFL
TAF
KBFL 020539Z 0206/0306 VRB04KT P6SM VCSH BKN050 OVC100
     FM021200 VRB03KT P6SM BKN050
     FM022100 VRB04KT P6SM VCSH BKN050=



000
FTUS46 KHNX 020539
TAFMCE
TAF
KMCE 020539Z 0206/0306 VRB03KT P6SM SCT060 BKN150
     FM021000 VRB03KT P6SM VCSH SCT060=



000
FTUS46 KHNX 020539
TAFFAT
TAF
KFAT 020539Z 0206/0306 VRB03KT P6SM SCT060 BKN150
     FM021000 VRB03KT P6SM VCSH SCT060=



000
FTUS46 KHNX 020539
TAFFAT
TAF
KFAT 020539Z 0206/0306 VRB03KT P6SM SCT060 BKN150
     FM021000 VRB03KT P6SM VCSH SCT060=



000
FTUS46 KHNX 020539
TAFMCE
TAF
KMCE 020539Z 0206/0306 VRB03KT P6SM SCT060 BKN150
     FM021000 VRB03KT P6SM VCSH SCT060=



000
FTUS46 KHNX 020539
TAFBFL
TAF
KBFL 020539Z 0206/0306 VRB04KT P6SM VCSH BKN050 OVC100
     FM021200 VRB03KT P6SM BKN050
     FM022100 VRB04KT P6SM VCSH BKN050=



000
FTUS46 KHNX 020326 AAC
TAFFAT
TAF AMD
KFAT 020326Z 0203/0224 VRB04KT P6SM VCSH SCT050 BKN100
     FM021800 15008KT P6SM BKN100=



000
FTUS46 KHNX 020150 AAB
TAFFAT
TAF AMD
KFAT 020150Z 0202/0224 VRB04KT P6SM SCT050 BKN100
      TEMPO 0202/0203 -TSRA BKN050CB
     FM021800 15008KT P6SM BKN100=



000
FTUS46 KHNX 020014 AAA
TAFFAT
TAF AMD
KFAT 020014Z 0200/0224 VRB04KT P6SM SCT050 BKN100
      TEMPO 0200/0203 -SHRA BKN050
     FM021800 15008KT P6SM BKN100=



000
FTUS46 KHNX 020014 AAA
TAFFAT
TAF AMD
KFAT 020014Z 0200/0224 VRB04KT P6SM SCT050 BKN100
      TEMPO 0200/0203 -SHRA BKN050
     FM021800 15008KT P6SM BKN100=



000
FTUS46 KHNX 012320
TAFMCE
TAF
KMCE 012320Z 0200/0224 32006KT P6SM SCT060 BKN150
     FM021800 16006KT 5SM HZ BKN250=



000
FTUS46 KHNX 012320
TAFFAT
TAF
KFAT 012320Z 0200/0224 VRB04KT P6SM SCT060 BKN100
     FM021800 15008KT P6SM BKN100=



000
FTUS46 KHNX 012320
TAFMCE
TAF
KMCE 012320Z 0200/0224 32006KT P6SM SCT060 BKN150
     FM021800 16006KT 5SM HZ BKN250=



000
FTUS46 KHNX 012320
TAFBFL
TAF
KBFL 012320Z 0200/0224 35009KT P6SM VCSH SCT030 BKN060
     FM020600 VRB04KT P6SM BKN050 OVC100
     FM022100 31010KT P6SM BKN250=



000
FTUS46 KHNX 012320
TAFBFL
TAF
KBFL 012320Z 0200/0224 35009KT P6SM VCSH SCT030 BKN060
     FM020600 VRB04KT P6SM BKN050 OVC100
     FM022100 31010KT P6SM BKN250=



000
FTUS46 KHNX 012320
TAFFAT
TAF
KFAT 012320Z 0200/0224 VRB04KT P6SM SCT060 BKN100
     FM021800 15008KT P6SM BKN100=



000
FTUS46 KHNX 011723
TAFMCE
TAF
KMCE 011723Z 0118/0218 VRB03KT P6SM SCT060 BKN150=



000
FTUS46 KHNX 011723
TAFMCE
TAF
KMCE 011723Z 0118/0218 VRB03KT P6SM SCT060 BKN150=



000
FTUS46 KHNX 011723
TAFFAT
TAF
KFAT 011723Z 0118/0218 VRB04KT P6SM SCT060 BKN100=



000
FTUS46 KHNX 011723
TAFBFL
TAF
KBFL 011723Z 0118/0218 VRB04KT P6SM -SHRA SCT080 BKN150
     FM012100 32007KT P6SM VCSH BKN060 OVC070
     FM020600 VRB04KT P6SM BKN060 OVC070 PROB30 0206/0207 P6SM -SHRA
      OVC050
     FM021200 VRB03KT P6SM OVC250=



000
FTUS46 KHNX 011723
TAFBFL
TAF
KBFL 011723Z 0118/0218 VRB04KT P6SM -SHRA SCT080 BKN150
     FM012100 32007KT P6SM VCSH BKN060 OVC070
     FM020600 VRB04KT P6SM BKN060 OVC070 PROB30 0206/0207 P6SM -SHRA
      OVC050
     FM021200 VRB03KT P6SM OVC250=



000
FTUS46 KHNX 011723
TAFFAT
TAF
KFAT 011723Z 0118/0218 VRB04KT P6SM SCT060 BKN100=



000
FTUS46 KHNX 011129
TAFMCE
TAF
KMCE 011129Z 0112/0212 00000KT P6SM SCT060 BKN150
     FM012000 VRB04KT P6SM BKN060
     FM020400 VRB02KT P6SM SCT060=



000
FTUS46 KHNX 011129
TAFBFL
TAF
KBFL 011129Z 0112/0212 VRB04KT P6SM SCT080 BKN150
     FM011900 32007KT P6SM -SHRA BKN060
     FM020600 VRB04KT P6SM VCSH BKN060=



000
FTUS46 KHNX 011129
TAFFAT
TAF
KFAT 011129Z 0112/0212 VRB03KT P6SM SCT060 BKN130
     FM012000 VRB04KT P6SM BKN060
     FM020400 VRB02KT P6SM SCT060=



000
FTUS46 KHNX 010528
TAFFAT
TAF
KFAT 010528Z 0106/0206 VRB04KT P6SM SCT060 BKN090
      TEMPO 0106/0110 -SHRA BKN060
     FM012000 VRB04KT P6SM VCSH BKN060
     FM020400 VRB04KT P6SM SCT060=



000
FTUS46 KHNX 010528
TAFBFL
TAF
KBFL 010528Z 0106/0206 VRB04KT P6SM SCT060 BKN090
      TEMPO 0106/0110 -SHRA BKN060
     FM012000 32007KT P6SM VCSH BKN060
     FM020400 05005KT P6SM BKN060=



000
FTUS46 KHNX 010528
TAFMCE
TAF
KMCE 010528Z 0106/0206 VRB03KT P6SM SCT060 BKN090
      TEMPO 0106/0110 -SHRA BKN060
     FM012000 VRB04KT P6SM VCSH BKN060
     FM020400 VRB04KT P6SM SCT060=



000
FTUS46 KHNX 010528
TAFBFL
TAF
KBFL 010528Z 0106/0206 VRB04KT P6SM SCT060 BKN090
      TEMPO 0106/0110 -SHRA BKN060
     FM012000 32007KT P6SM VCSH BKN060
     FM020400 05005KT P6SM BKN060=



000
FTUS46 KHNX 010528
TAFMCE
TAF
KMCE 010528Z 0106/0206 VRB03KT P6SM SCT060 BKN090
      TEMPO 0106/0110 -SHRA BKN060
     FM012000 VRB04KT P6SM VCSH BKN060
     FM020400 VRB04KT P6SM SCT060=



000
FTUS46 KHNX 010528
TAFFAT
TAF
KFAT 010528Z 0106/0206 VRB04KT P6SM SCT060 BKN090
      TEMPO 0106/0110 -SHRA BKN060
     FM012000 VRB04KT P6SM VCSH BKN060
     FM020400 VRB04KT P6SM SCT060=



000
FTUS46 KHNX 010150 AAA
TAFFAT
TAF AMD
KFAT 010150Z 0102/0124 32005KT P6SM VCSH SCT060 BKN090
     FM010400 VRB03KT P6SM BKN040 OVC060
     FM010900 VRB02KT P6SM BKN100=



000
FTUS46 KHNX 010150 AAA
TAFFAT
TAF AMD
KFAT 010150Z 0102/0124 32005KT P6SM VCSH SCT060 BKN090
     FM010400 VRB03KT P6SM BKN040 OVC060
     FM010900 VRB02KT P6SM BKN100=



000
FTUS46 KHNX 010137 AAA
TAFMCE
TAF AMD
KMCE 010137Z 0102/0124 26005KT P6SM VCSH SCT060 BKN090
     FM010400 VRB04KT P6SM SCT040 BKN060
     FM011200 32005KT P6SM BKN100=



000
FTUS46 KHNX 010134 AAA
TAFBFL
TAF AMD
KBFL 010134Z 0102/0124 04008KT P6SM SCT040 BKN070
      TEMPO 0102/0104 6SM -SHRA BKN040
     FM010400 VRB03KT P6SM VCSH BKN040 OVC070
     FM010800 30005KT P6SM BKN070=



000
FTUS46 KHNX 010134 AAA
TAFBFL
TAF AMD
KBFL 010134Z 0102/0124 04008KT P6SM SCT040 BKN070
      TEMPO 0102/0104 6SM -SHRA BKN040
     FM010400 VRB03KT P6SM VCSH BKN040 OVC070
     FM010800 30005KT P6SM BKN070=



000
FTUS46 KHNX 282320
TAFBFL
TAF
KBFL 282320Z 0100/0124 VRB04KT P6SM -RA SCT040 BKN060
     FM010400 VRB03KT P6SM VCSH BKN040 OVC070
     FM010800 30005KT P6SM BKN070=



000
FTUS46 KHNX 282320
TAFFAT
TAF
KFAT 282320Z 0100/0124 VRB02KT P6SM VCSH SCT025 OVC050
      TEMPO 0100/0103 TSRAGS SCT020CB
     FM010400 VRB03KT P6SM BKN040 OVC060
     FM010900 VRB02KT P6SM BKN100=



000
FTUS46 KHNX 282320
TAFBFL
TAF
KBFL 282320Z 0100/0124 VRB04KT P6SM -RA SCT040 BKN060
     FM010400 VRB03KT P6SM VCSH BKN040 OVC070
     FM010800 30005KT P6SM BKN070=



000
FTUS46 KHNX 282320
TAFFAT
TAF
KFAT 282320Z 0100/0124 VRB02KT P6SM VCSH SCT025 OVC050
      TEMPO 0100/0103 TSRAGS SCT020CB
     FM010400 VRB03KT P6SM BKN040 OVC060
     FM010900 VRB02KT P6SM BKN100=



000
FTUS46 KHNX 282320
TAFMCE
TAF
KMCE 282320Z 0100/0124 VRB03KT P6SM VCTS SCT025CB BKN040
      TEMPO 0100/0103 TSRAGS SCT020CB
     FM010300 VRB04KT P6SM SCT040 BKN060
     FM011200 32005KT P6SM BKN100=



000
FTUS46 KHNX 282320
TAFMCE
TAF
KMCE 282320Z 0100/0124 VRB03KT P6SM VCTS SCT025CB BKN040
      TEMPO 0100/0103 TSRAGS SCT020CB
     FM010300 VRB04KT P6SM SCT040 BKN060
     FM011200 32005KT P6SM BKN100=



000
FTUS46 KHNX 281720
TAFMCE
TAF
KMCE 281720Z 2818/0118 13006KT P6SM VCSH SCT025 BKN040
      TEMPO 2820/2824 3SM TSRAGS BKN025CB
     FM010400 VRB03KT P6SM BKN040
     FM011200 VRB02KT P6SM OVC100=



000
FTUS46 KHNX 281720
TAFBFL
TAF
KBFL 281720Z 2818/0118 VRB04KT P6SM VCSH SCT025 BKN040
      TEMPO 2820/2824 3SM TSRAGS BKN025CB
     FM010400 VRB03KT P6SM BKN040
     FM011200 VRB03KT P6SM BKN070=



000
FTUS46 KHNX 281720
TAFMCE
TAF
KMCE 281720Z 2818/0118 13006KT P6SM VCSH SCT025 BKN040
      TEMPO 2820/2824 3SM TSRAGS BKN025CB
     FM010400 VRB03KT P6SM BKN040
     FM011200 VRB02KT P6SM OVC100=



000
FTUS46 KHNX 281720
TAFFAT
TAF
KFAT 281720Z 2818/0118 15007KT P6SM VCSH SCT025 OVC050
      TEMPO 2820/2824 3SM TSRAGS OVC025CB
     FM010400 VRB03KT P6SM BKN040 OVC060
     FM010900 VRB02KT P6SM BKN100=



000
FTUS46 KHNX 281720
TAFFAT
TAF
KFAT 281720Z 2818/0118 15007KT P6SM VCSH SCT025 OVC050
      TEMPO 2820/2824 3SM TSRAGS OVC025CB
     FM010400 VRB03KT P6SM BKN040 OVC060
     FM010900 VRB02KT P6SM BKN100=



000
FTUS46 KHNX 281720
TAFBFL
TAF
KBFL 281720Z 2818/0118 VRB04KT P6SM VCSH SCT025 BKN040
      TEMPO 2820/2824 3SM TSRAGS BKN025CB
     FM010400 VRB03KT P6SM BKN040
     FM011200 VRB03KT P6SM BKN070=



    US Dept of Commerce
    National Oceanic and Atmospheric Administration
    National Weather Service
    1325 East West Highway
    Silver Spring, MD 20910
    Page Author: NWS Internet Services Team
Disclaimer
Information Quality
Credits
Glossary
Privacy Policy
Freedom of Information Act (FOIA)
About Us
Career Opportunities